Terminal Aerodrome Forecast
Issued by NWS Cleveland, OH

Home | Current Version | Previous Version | Text Only | Print | Product List | Glossary On
Versions: 1 2 3 4 5 6 7 8 9 10 11 12 13 14 15 16 17 18 19 20 21 22
678
FTUS41 KCLE 230115 AAA
TAFYNG
TAF AMD
KYNG 230115Z 2301/2324 18010KT P6SM -SHRA BKN035 OVC070
      TEMPO 2304/2308 4SM -SHRA BKN030
     FM230800 20010KT P6SM VCSH SCT025 BKN040
     FM231500 22014G22KT 6SM -SHRA BKN025 OVC040
     FM232100 24018G26KT 5SM -SHRASN OVC018=

USA.gov is the U.S. government's official web portal to all federal, state and local government web resources and services.